createdAt,value
2019-05-01T00:00:27.115Z,13.60
2019-05-01T00:01:27.106Z,20.60
2019-05-01T00:02:27.097Z,8.00
2019-05-01T00:03:27.106Z,7.00
2019-05-01T00:04:27.063Z,11.00
2019-05-01T00:05:27.060Z,18.40
2019-05-01T00:06:27.046Z,15.90
2019-05-01T00:07:27.037Z,8.90
2019-05-01T00:08:27.017Z,8.20
2019-05-01T00:09:27.039Z,11.90
2019-05-01T00:10:26.998Z,12.40
2019-05-01T00:11:26.994Z,10.20
2019-05-01T00:12:26.982Z,8.90
2019-05-01T00:13:26.969Z,10.50
2019-05-01T00:14:27.279Z,10.50
2019-05-01T00:15:26.942Z,13.10
2019-05-01T00:16:26.936Z,12.50
2019-05-01T00:17:27.813Z,10.90
2019-05-01T00:18:26.905Z,11.40
2019-05-01T00:19:26.920Z,8.80
2019-05-01T00:20:26.888Z,9.30
2019-05-01T00:21:26.878Z,10.40
2019-05-01T00:22:26.891Z,9.40
2019-05-01T00:23:26.856Z,12.20
2019-05-01T00:24:26.865Z,13.80
2019-05-01T00:25:26.847Z,13.30
2019-05-01T00:26:26.828Z,12.60
2019-05-01T00:27:26.807Z,10.50
2019-05-01T00:28:26.800Z,16.40
2019-05-01T00:29:26.806Z,16.40
2019-05-01T00:30:29.931Z,17.20
2019-05-01T00:31:26.771Z,13.90
2019-05-01T00:32:26.750Z,12.90
2019-05-01T00:33:26.733Z,15.90
2019-05-01T00:34:26.747Z,16.20
2019-05-01T00:35:26.717Z,16.10
2019-05-01T00:36:26.719Z,14.60
2019-05-01T00:37:26.703Z,15.10
2019-05-01T00:38:26.690Z,15.40
2019-05-01T00:39:26.730Z,16.90
2019-05-01T00:40:26.673Z,17.80
2019-05-01T00:41:26.655Z,16.20
2019-05-01T00:42:26.641Z,14.40
2019-05-01T00:43:26.626Z,12.50
2019-05-01T00:44:26.640Z,16.80
2019-05-01T00:45:26.608Z,14.50
2019-05-01T00:46:26.596Z,11.90
2019-05-01T00:47:26.585Z,13.00
2019-05-01T00:48:26.579Z,14.20
2019-05-01T00:49:26.595Z,13.50
2019-05-01T00:50:26.565Z,11.20
2019-05-01T00:51:26.549Z,11.90
2019-05-01T00:52:26.527Z,14.70
2019-05-01T00:53:26.518Z,14.70
2019-05-01T00:54:26.531Z,11.60
2019-05-01T00:55:26.494Z,12.20
2019-05-01T00:56:26.506Z,17.50
2019-05-01T00:57:26.486Z,14.30
2019-05-01T00:58:26.466Z,16.10
2019-05-01T00:59:26.468Z,14.10
2019-05-01T01:00:26.465Z,14.90
2019-05-01T01:01:26.426Z,13.80
2019-05-01T01:02:26.443Z,19.60
2019-05-01T01:03:26.419Z,14.40
2019-05-01T01:04:26.394Z,14.70
2019-05-01T01:05:26.397Z,15.90
2019-05-01T01:06:26.382Z,18.40
2019-05-01T01:07:26.371Z,15.70
2019-05-01T01:08:26.360Z,16.60
2019-05-01T01:09:26.352Z,16.70
2019-05-01T01:10:26.374Z,15.40
2019-05-01T01:11:26.348Z,15.40
2019-05-01T01:12:26.303Z,15.00
2019-05-01T01:13:26.309Z,16.70
2019-05-01T01:14:26.288Z,15.90
2019-05-01T01:15:26.293Z,18.20
2019-05-01T01:16:26.277Z,14.70
2019-05-01T01:17:26.254Z,18.00
2019-05-01T01:18:26.244Z,14.60
2019-05-01T01:19:26.258Z,21.60
2019-05-01T01:20:26.252Z,19.20
2019-05-01T01:21:26.223Z,16.90
2019-05-01T01:22:26.211Z,18.20
2019-05-01T01:23:26.202Z,20.00
2019-05-01T01:24:26.180Z,19.30
2019-05-01T01:25:26.187Z,14.10
2019-05-01T01:26:26.161Z,14.50
2019-05-01T01:27:26.148Z,18.60
2019-05-01T01:28:26.146Z,17.70
2019-05-01T01:29:26.133Z,17.40
2019-05-01T01:30:26.142Z,17.00
2019-05-01T01:31:26.107Z,17.60
2019-05-01T01:32:26.098Z,17.50
2019-05-01T01:33:26.083Z,19.30
2019-05-01T01:34:26.081Z,18.80
2019-05-01T01:35:26.092Z,21.90
2019-05-01T01:36:26.043Z,21.40
2019-05-01T01:37:26.035Z,19.50
2019-05-01T01:38:26.029Z,21.30
2019-05-01T01:39:26.010Z,20.00
2019-05-01T01:40:26.046Z,19.20
2019-05-01T01:41:26.005Z,20.80
2019-05-01T01:42:25.996Z,20.60
2019-05-01T01:43:25.986Z,17.90
2019-05-01T01:44:25.960Z,18.40
2019-05-01T01:45:25.954Z,21.80
2019-05-01T01:46:25.958Z,18.20
2019-05-01T01:47:25.923Z,20.50
2019-05-01T01:48:25.930Z,22.70
2019-05-01T01:49:25.916Z,21.30
2019-05-01T01:50:25.895Z,21.10
2019-05-01T01:51:25.920Z,22.10
2019-05-01T01:52:25.879Z,20.40
2019-05-01T01:53:25.870Z,20.00
2019-05-01T01:54:25.890Z,20.70
2019-05-01T01:55:25.846Z,20.60
2019-05-01T01:56:25.825Z,21.00
2019-05-01T01:57:25.837Z,20.80
2019-05-01T01:58:25.800Z,21.60
2019-05-01T01:59:25.789Z,23.00
2019-05-01T02:00:25.793Z,18.60
2019-05-01T02:01:25.784Z,20.90
2019-05-01T02:02:25.795Z,26.50
2019-05-01T02:03:25.760Z,21.90
2019-05-01T02:04:25.736Z,25.50
2019-05-01T02:05:25.727Z,22.30
2019-05-01T02:06:25.726Z,21.00
2019-05-01T02:07:26.226Z,21.40
2019-05-01T02:08:25.700Z,20.50
2019-05-01T02:09:25.685Z,23.00
2019-05-01T02:10:25.774Z,22.40
2019-05-01T02:11:25.666Z,22.40
2019-05-01T02:12:25.681Z,19.70
2019-05-01T02:13:25.641Z,20.80
2019-05-01T02:14:25.646Z,19.60
2019-05-01T02:15:25.637Z,21.50
2019-05-01T02:16:25.613Z,22.80
2019-05-01T02:17:25.599Z,24.60
2019-05-01T02:18:25.604Z,22.40
2019-05-01T02:19:25.580Z,20.90
2019-05-01T02:20:25.605Z,22.30
2019-05-01T02:21:25.563Z,25.00
2019-05-01T02:22:25.535Z,23.80
2019-05-01T02:23:25.531Z,24.60
2019-05-01T02:24:25.530Z,23.00
2019-05-01T02:25:25.521Z,22.90
2019-05-01T02:26:25.521Z,23.10
2019-05-01T02:27:25.497Z,23.10
2019-05-01T02:28:25.475Z,24.80
2019-05-01T02:29:25.483Z,24.60
2019-05-01T02:30:25.462Z,23.40
2019-05-01T02:31:28.170Z,23.90
2019-05-01T02:32:25.435Z,22.20
2019-05-01T02:33:25.436Z,26.30
2019-05-01T02:34:25.426Z,25.90
2019-05-01T02:35:25.432Z,24.30
2019-05-01T02:36:25.383Z,22.80
2019-05-01T02:37:25.371Z,22.60
2019-05-01T02:38:25.374Z,25.60
2019-05-01T02:39:25.362Z,24.60
2019-05-01T02:40:25.360Z,24.70
2019-05-01T02:41:25.397Z,25.10
2019-05-01T02:42:25.327Z,22.40
2019-05-01T02:43:25.304Z,25.30
2019-05-01T02:44:25.327Z,27.40
2019-05-01T02:45:25.310Z,24.80
2019-05-01T02:46:25.304Z,25.30
2019-05-01T02:47:25.268Z,25.90
2019-05-01T02:48:25.259Z,27.10
2019-05-01T02:49:25.245Z,27.50
2019-05-01T02:50:25.253Z,25.20
2019-05-01T02:51:25.264Z,25.20
2019-05-01T02:52:25.218Z,27.80
2019-05-01T02:53:25.234Z,27.90
2019-05-01T02:54:25.183Z,27.60
2019-05-01T02:55:25.187Z,27.50
2019-05-01T02:56:25.180Z,28.30
2019-05-01T02:57:25.177Z,28.30
2019-05-01T02:58:25.145Z,26.60
2019-05-01T02:59:25.146Z,26.10
2019-05-01T03:00:25.114Z,24.90
2019-05-01T03:01:25.127Z,27.20
2019-05-01T03:02:25.145Z,26.30
2019-05-01T03:03:25.084Z,25.80
2019-05-01T03:04:25.087Z,30.10
2019-05-01T03:05:25.084Z,26.80
2019-05-01T03:06:25.066Z,26.20
2019-05-01T03:07:25.103Z,27.40
2019-05-01T03:08:25.048Z,29.80
2019-05-01T03:09:25.032Z,28.40
2019-05-01T03:10:25.017Z,26.80
2019-05-01T03:11:25.015Z,26.00
2019-05-01T03:12:24.981Z,27.20
2019-05-01T03:13:25.003Z,26.70
2019-05-01T03:14:24.963Z,28.90
2019-05-01T03:15:24.950Z,29.50
2019-05-01T03:16:24.954Z,31.50
2019-05-01T03:17:24.937Z,27.30
2019-05-01T03:18:24.959Z,27.30
2019-05-01T03:19:24.934Z,27.90
2019-05-01T03:20:24.892Z,29.40
2019-05-01T03:21:24.892Z,28.80
2019-05-01T03:22:24.879Z,28.60
2019-05-01T03:23:24.884Z,34.90
2019-05-01T03:24:24.869Z,28.10
2019-05-01T03:25:24.855Z,28.20
2019-05-01T03:26:24.824Z,29.00
2019-05-01T03:27:24.816Z,28.90
2019-05-01T03:28:24.836Z,30.10
2019-05-01T03:29:24.832Z,28.50
2019-05-01T03:30:24.785Z,27.10
2019-05-01T03:31:24.777Z,28.20
2019-05-01T03:32:24.776Z,28.30
2019-05-01T03:33:24.777Z,28.80
2019-05-01T03:34:24.775Z,29.50
2019-05-01T03:35:24.744Z,29.70
2019-05-01T03:36:24.726Z,34.50
2019-05-01T03:37:24.735Z,28.70
2019-05-01T03:38:24.709Z,33.10
2019-05-01T03:39:24.696Z,27.50
2019-05-01T03:40:24.675Z,30.20
2019-05-01T03:41:24.701Z,29.70
2019-05-01T03:42:24.657Z,30.70
2019-05-01T03:43:24.646Z,32.10
2019-05-01T03:44:24.624Z,28.60
2019-05-01T03:45:24.625Z,31.60
2019-05-01T03:46:24.613Z,32.50
2019-05-01T03:47:24.618Z,32.80
2019-05-01T03:48:24.595Z,31.70
2019-05-01T03:49:24.589Z,31.50
2019-05-01T03:50:24.573Z,30.20
2019-05-01T03:51:24.562Z,31.00
2019-05-01T03:52:24.566Z,34.10
2019-05-01T03:53:24.540Z,31.30
2019-05-01T03:54:24.529Z,35.00
2019-05-01T03:55:24.515Z,35.30
2019-05-01T03:56:24.507Z,34.80
2019-05-01T03:57:24.529Z,32.60
2019-05-01T03:58:24.487Z,35.10
2019-05-01T03:59:24.464Z,30.80
2019-05-01T04:00:24.458Z,35.50
2019-05-01T04:01:24.476Z,33.90
2019-05-01T04:02:33.765Z,34.80
2019-05-01T04:03:25.460Z,35.70
2019-05-01T04:04:24.402Z,37.50
2019-05-01T04:05:24.398Z,36.00
2019-05-01T04:06:24.396Z,37.60
2019-05-01T04:07:24.381Z,37.50
2019-05-01T04:08:24.400Z,33.60
2019-05-01T04:09:24.353Z,35.30
2019-05-01T04:10:24.418Z,35.70
2019-05-01T04:11:24.332Z,32.60
2019-05-01T04:12:24.332Z,35.20
2019-05-01T04:13:24.365Z,33.00
2019-05-01T04:14:24.311Z,32.20
2019-05-01T04:15:24.299Z,36.40
2019-05-01T04:16:24.294Z,35.80
2019-05-01T04:17:24.272Z,37.90
2019-05-01T04:18:24.268Z,34.60
2019-05-01T04:19:24.277Z,35.20
2019-05-01T04:20:24.239Z,34.90
2019-05-01T04:21:24.220Z,35.00
2019-05-01T04:22:24.212Z,34.30
2019-05-01T04:23:24.203Z,37.40
2019-05-01T04:24:24.220Z,36.60
2019-05-01T04:25:24.189Z,35.90
2019-05-01T04:26:24.181Z,34.00
2019-05-01T04:27:24.173Z,34.40
2019-05-01T04:28:24.591Z,37.80
2019-05-01T04:29:24.158Z,34.90
2019-05-01T04:30:24.154Z,35.70
2019-05-01T04:31:24.126Z,40.30
2019-05-01T04:32:24.108Z,33.70
2019-05-01T04:33:24.093Z,35.90
2019-05-01T04:34:24.101Z,38.10
2019-05-01T04:35:24.080Z,40.00
2019-05-01T04:36:24.065Z,37.20
2019-05-01T04:37:24.057Z,40.60
2019-05-01T04:38:24.118Z,42.20
2019-05-01T04:39:24.047Z,40.30
2019-05-01T04:40:24.022Z,38.20
2019-05-01T04:41:24.003Z,37.30
2019-05-01T04:42:23.993Z,35.40
2019-05-01T04:43:23.980Z,40.40
2019-05-01T04:44:23.997Z,35.40
2019-05-01T04:45:23.960Z,39.50
2019-05-01T04:46:23.951Z,40.10
2019-05-01T04:47:23.964Z,42.70
2019-05-01T04:48:23.949Z,40.60
2019-05-01T04:49:23.950Z,42.10
2019-05-01T04:50:23.917Z,46.80
2019-05-01T04:51:23.906Z,39.80
2019-05-01T04:52:23.907Z,40.50
2019-05-01T04:53:23.867Z,43.80
2019-05-01T04:54:23.855Z,40.20
2019-05-01T04:55:23.911Z,39.90
2019-05-01T04:56:23.851Z,40.20
2019-05-01T04:57:23.834Z,40.70
2019-05-01T04:58:23.825Z,40.20
2019-05-01T04:59:23.815Z,43.10
2019-05-01T05:00:23.815Z,44.70
2019-05-01T05:01:23.774Z,39.60
2019-05-01T05:02:23.808Z,42.10
2019-05-01T05:03:23.770Z,41.90
2019-05-01T05:04:23.764Z,40.20
2019-05-01T05:05:23.742Z,40.60
2019-05-01T05:06:23.754Z,40.10
2019-05-01T05:07:23.723Z,43.50
2019-05-01T05:08:23.722Z,39.60
2019-05-01T05:09:23.704Z,40.50
2019-05-01T05:10:23.692Z,42.70
2019-05-01T05:11:23.701Z,41.40
2019-05-01T05:12:23.664Z,44.40
2019-05-01T05:13:23.646Z,44.80
2019-05-01T05:14:23.641Z,43.60
2019-05-01T05:15:23.624Z,43.70
2019-05-01T05:16:23.644Z,43.70
2019-05-01T05:17:23.617Z,43.60
2019-05-01T05:18:23.603Z,41.00
2019-05-01T05:19:23.583Z,41.80
2019-05-01T05:20:23.579Z,39.80
2019-05-01T05:21:23.611Z,39.10
2019-05-01T05:22:23.560Z,38.70
2019-05-01T05:23:23.544Z,36.80
2019-05-01T05:24:23.529Z,35.80
2019-05-01T05:25:23.518Z,41.00
2019-05-01T05:26:23.506Z,39.80
2019-05-01T05:27:23.519Z,38.20
2019-05-01T05:28:23.502Z,38.10
2019-05-01T05:29:23.478Z,37.90
2019-05-01T05:30:23.477Z,37.90
2019-05-01T05:31:23.461Z,38.60
2019-05-01T05:32:23.473Z,36.60
2019-05-01T05:33:23.426Z,39.80
2019-05-01T05:34:23.427Z,39.30
2019-05-01T05:35:23.416Z,38.20
2019-05-01T05:36:23.398Z,38.10
2019-05-01T05:37:23.386Z,39.20
2019-05-01T05:38:23.386Z,40.10
2019-05-01T05:39:23.365Z,42.60
2019-05-01T05:40:23.393Z,38.30
2019-05-01T05:41:23.351Z,37.80
2019-05-01T05:42:23.343Z,42.20
2019-05-01T05:43:23.331Z,38.80
2019-05-01T05:44:23.312Z,37.70
2019-05-01T05:45:23.294Z,38.70
2019-05-01T05:46:23.312Z,41.20
2019-05-01T05:47:25.427Z,37.70
2019-05-01T05:48:23.269Z,35.50
2019-05-01T05:49:23.270Z,37.60
2019-05-01T05:50:23.243Z,38.20
2019-05-01T05:51:23.227Z,36.90
2019-05-01T05:52:23.234Z,37.50
2019-05-01T05:53:23.216Z,40.00
2019-05-01T05:54:23.229Z,37.20
2019-05-01T05:55:23.193Z,37.40
2019-05-01T05:56:23.175Z,40.60
2019-05-01T05:57:23.168Z,39.00
2019-05-01T05:58:23.154Z,39.00
2019-05-01T05:59:23.160Z,37.70
2019-05-01T06:00:23.139Z,36.00
2019-05-01T06:01:23.127Z,37.20
2019-05-01T06:02:23.115Z,36.60
2019-05-01T06:03:30.997Z,39.90
2019-05-01T06:04:24.106Z,36.30
2019-05-01T06:05:23.080Z,35.90
2019-05-01T06:06:23.079Z,38.80
2019-05-01T06:07:23.066Z,37.40
2019-05-01T06:08:23.051Z,36.00
2019-05-01T06:09:23.059Z,40.20
2019-05-01T06:10:24.322Z,37.30
2019-05-01T06:11:23.036Z,37.10
2019-05-01T06:12:23.011Z,38.30
2019-05-01T06:13:23.082Z,40.50
2019-05-01T06:14:27.008Z,37.70
2019-05-01T06:15:22.976Z,38.50
2019-05-01T06:16:22.962Z,40.10
2019-05-01T06:17:23.814Z,40.40
2019-05-01T06:18:23.925Z,38.60
2019-05-01T06:19:22.919Z,40.00
2019-05-01T06:20:26.007Z,40.30
2019-05-01T06:21:22.903Z,36.20
2019-05-01T06:22:22.887Z,37.30
2019-05-01T06:23:22.879Z,39.70
2019-05-01T06:24:22.881Z,38.20
2019-05-01T06:25:25.166Z,42.30
2019-05-01T06:26:22.856Z,39.30
2019-05-01T06:27:22.840Z,44.20
2019-05-01T06:28:24.785Z,44.30
2019-05-01T06:29:22.813Z,39.60
2019-05-01T06:30:22.820Z,42.50
2019-05-01T06:31:23.487Z,41.60
2019-05-01T06:32:22.787Z,41.50
2019-05-01T06:33:22.772Z,42.80
2019-05-01T06:34:23.898Z,40.40
2019-05-01T06:35:23.786Z,40.40
2019-05-01T06:36:24.065Z,40.50
2019-05-01T06:37:25.305Z,41.00
2019-05-01T06:38:22.719Z,42.00
2019-05-01T06:39:22.711Z,43.10
2019-05-01T06:40:23.610Z,40.20
2019-05-01T06:41:22.694Z,38.90
2019-05-01T06:42:22.678Z,41.90
2019-05-01T06:43:25.228Z,42.00
2019-05-01T06:44:22.655Z,44.80
2019-05-01T06:45:22.649Z,41.40
2019-05-01T06:46:27.480Z,46.60
2019-05-01T06:47:23.622Z,46.60
2019-05-01T06:48:22.602Z,39.60
2019-05-01T06:49:24.172Z,45.90
2019-05-01T06:50:23.575Z,44.50
2019-05-01T06:51:22.606Z,43.10
2019-05-01T06:52:24.944Z,41.90
2019-05-01T06:53:23.556Z,42.40
2019-05-01T06:54:22.535Z,41.80
2019-05-01T06:55:26.929Z,42.50
2019-05-01T06:56:23.549Z,43.40
2019-05-01T06:57:22.521Z,42.10
2019-05-01T06:58:22.502Z,44.70
2019-05-01T06:59:26.146Z,44.30
2019-05-01T07:00:23.477Z,54.40
2019-05-01T07:01:24.056Z,43.50
2019-05-01T07:02:22.476Z,51.00
2019-05-01T07:03:22.444Z,44.50
2019-05-01T07:04:22.432Z,49.00
2019-05-01T07:05:22.425Z,44.70
2019-05-01T07:06:26.142Z,49.10
2019-05-01T07:07:25.509Z,51.70
2019-05-01T07:08:24.628Z,46.90
2019-05-01T07:09:28.137Z,46.30
2019-05-01T07:10:30.673Z,48.00
2019-05-01T07:11:23.410Z,47.90
2019-05-01T07:12:23.875Z,48.90
2019-05-01T07:13:23.328Z,48.70
2019-05-01T07:14:22.314Z,49.50
2019-05-01T07:15:26.840Z,47.20
2019-05-01T07:16:23.305Z,48.40
2019-05-01T07:17:22.331Z,54.80
2019-05-01T07:18:24.117Z,48.10
2019-05-01T07:19:22.267Z,51.10
2019-05-01T07:20:22.247Z,49.00
2019-05-01T07:21:22.855Z,48.00
2019-05-01T07:22:22.224Z,49.00
2019-05-01T07:23:22.232Z,50.80
2019-05-01T07:24:24.089Z,46.10
2019-05-01T07:25:23.201Z,49.50
2019-05-01T07:26:22.842Z,49.20
2019-05-01T07:27:23.922Z,50.60
2019-05-01T07:28:22.198Z,49.40
2019-05-01T07:29:22.172Z,47.90
2019-05-01T07:30:22.147Z,45.20
2019-05-01T07:31:26.037Z,41.90
2019-05-01T07:32:23.118Z,47.50
2019-05-01T07:33:22.126Z,46.30
2019-05-01T07:34:26.318Z,44.20
2019-05-01T07:35:23.079Z,49.00
2019-05-01T07:36:22.092Z,45.70
2019-05-01T07:37:25.965Z,47.90
2019-05-01T07:38:23.083Z,45.00
2019-05-01T07:39:22.093Z,44.10
2019-05-01T07:40:28.976Z,47.70
2019-05-01T07:41:23.025Z,46.50
2019-05-01T07:42:22.011Z,43.80
2019-05-01T07:43:23.939Z,48.40
2019-05-01T07:44:21.997Z,46.80
2019-05-01T07:45:21.976Z,47.70
2019-05-01T07:46:21.957Z,47.60
2019-05-01T07:47:25.834Z,42.90
2019-05-01T07:48:22.949Z,46.00
2019-05-01T07:49:21.955Z,45.10
2019-05-01T07:50:23.861Z,44.50
2019-05-01T07:51:22.918Z,43.60
2019-05-01T07:52:21.891Z,42.80
2019-05-01T07:53:23.824Z,48.40
2019-05-01T07:54:22.896Z,47.10
2019-05-01T07:55:21.858Z,45.30
2019-05-01T07:56:22.788Z,43.80
2019-05-01T07:57:23.246Z,42.10
2019-05-01T07:58:21.827Z,47.70
2019-05-01T07:59:22.854Z,41.60
2019-05-01T08:00:22.833Z,40.20
2019-05-01T08:01:21.822Z,41.50
2019-05-01T08:02:25.924Z,40.50
2019-05-01T08:03:22.783Z,42.60
2019-05-01T08:04:35.321Z,46.50
2019-05-01T08:05:22.777Z,40.30
2019-05-01T08:06:22.925Z,43.80
2019-05-01T08:07:21.732Z,41.00
2019-05-01T08:08:21.724Z,42.00
2019-05-01T08:09:21.718Z,39.60
2019-05-01T08:10:25.892Z,40.60
2019-05-01T08:11:22.692Z,41.80
2019-05-01T08:12:24.093Z,39.90
2019-05-01T08:13:21.667Z,44.70
2019-05-01T08:14:21.663Z,39.50
2019-05-01T08:15:22.475Z,40.40
2019-05-01T08:16:22.639Z,37.50
2019-05-01T08:17:21.618Z,39.90
2019-05-01T08:18:24.051Z,40.00
2019-05-01T08:19:22.595Z,37.90
2019-05-01T08:20:21.623Z,38.80
2019-05-01T08:21:26.028Z,37.00
2019-05-01T08:22:22.575Z,37.80
2019-05-01T08:23:21.556Z,37.90
2019-05-01T08:24:22.909Z,36.70
2019-05-01T08:25:21.549Z,36.70
2019-05-01T08:26:21.518Z,38.30
2019-05-01T08:27:21.506Z,37.40
2019-05-01T08:28:21.498Z,38.40
2019-05-01T08:29:21.486Z,38.70
2019-05-01T08:30:21.488Z,37.90
2019-05-01T08:31:23.095Z,37.50
2019-05-01T08:32:22.476Z,38.90
2019-05-01T08:33:21.441Z,39.20
2019-05-01T08:34:25.361Z,38.80
2019-05-01T08:35:22.441Z,36.20
2019-05-01T08:36:21.417Z,36.90
2019-05-01T08:37:22.693Z,36.10
2019-05-01T08:38:21.380Z,40.30
2019-05-01T08:39:21.369Z,37.30
2019-05-01T08:40:21.727Z,36.50
2019-05-01T08:41:21.365Z,37.00
2019-05-01T08:42:21.346Z,40.30
2019-05-01T08:43:21.339Z,36.70
2019-05-01T08:44:24.893Z,37.40
2019-05-01T08:45:22.336Z,34.80
2019-05-01T08:46:21.306Z,39.90
2019-05-01T08:47:25.793Z,35.80
2019-05-01T08:48:22.270Z,37.50
2019-05-01T08:49:21.278Z,36.70
2019-05-01T08:50:24.781Z,37.00
2019-05-01T08:51:21.261Z,36.30
2019-05-01T08:52:21.238Z,35.40
2019-05-01T08:53:22.142Z,33.00
2019-05-01T08:54:21.217Z,34.00
2019-05-01T08:55:21.206Z,32.90
2019-05-01T08:56:21.987Z,36.00
2019-05-01T08:57:21.182Z,32.20
2019-05-01T08:58:21.190Z,33.20
2019-05-01T08:59:24.014Z,28.50
2019-05-01T09:00:21.149Z,31.00
2019-05-01T09:01:21.146Z,28.00
2019-05-01T09:02:21.131Z,29.80
2019-05-01T09:03:21.140Z,30.30
2019-05-01T09:04:25.292Z,29.90
2019-05-01T09:05:28.871Z,27.50
2019-05-01T09:06:34.267Z,29.50
2019-05-01T09:07:24.085Z,26.50
2019-05-01T09:08:21.070Z,29.80
2019-05-01T09:09:21.051Z,27.20
2019-05-01T09:10:21.738Z,25.60
2019-05-01T09:11:21.039Z,29.40
2019-05-01T09:12:21.029Z,27.90
2019-05-01T09:13:23.797Z,27.80
2019-05-01T09:14:21.016Z,25.70
2019-05-01T09:15:21.011Z,24.50
2019-05-01T09:16:23.534Z,26.50
2019-05-01T09:17:22.004Z,25.70
2019-05-01T09:18:20.979Z,26.50
2019-05-01T09:19:20.961Z,24.70
2019-05-01T09:20:20.951Z,25.70
2019-05-01T09:21:20.959Z,26.50
2019-05-01T09:22:20.917Z,26.20
2019-05-01T09:23:20.935Z,23.90
2019-05-01T09:24:23.106Z,25.50
2019-05-01T09:25:21.898Z,25.00
2019-05-01T09:26:20.894Z,23.70
2019-05-01T09:27:23.748Z,26.00
2019-05-01T09:28:21.862Z,25.20
2019-05-01T09:29:20.869Z,26.30
2019-05-01T09:30:21.832Z,27.90
2019-05-01T09:31:21.836Z,25.50
2019-05-01T09:32:20.898Z,25.40
2019-05-01T09:33:20.825Z,27.30
2019-05-01T09:34:21.118Z,24.80
2019-05-01T09:35:20.787Z,25.80
2019-05-01T09:36:20.799Z,25.70
2019-05-01T09:37:20.777Z,25.40
2019-05-01T09:38:20.796Z,29.70
2019-05-01T09:39:20.763Z,28.10
2019-05-01T09:40:20.740Z,27.40
2019-05-01T09:41:20.740Z,27.80
2019-05-01T09:42:23.657Z,27.80
2019-05-01T09:43:20.719Z,28.90
2019-05-01T09:44:20.709Z,26.90
2019-05-01T09:45:20.701Z,26.50
2019-05-01T09:46:20.708Z,26.50
2019-05-01T09:47:20.683Z,26.00
2019-05-01T09:48:20.679Z,26.60
2019-05-01T09:49:20.647Z,26.20
2019-05-01T09:50:20.655Z,26.50
2019-05-01T09:51:20.643Z,25.70
2019-05-01T09:52:23.367Z,25.50
2019-05-01T09:53:20.629Z,24.30
2019-05-01T09:54:20.600Z,24.60
2019-05-01T09:55:23.120Z,24.90
2019-05-01T09:56:20.588Z,21.90
2019-05-01T09:57:20.580Z,23.80
2019-05-01T09:58:20.608Z,27.10
2019-05-01T09:59:20.559Z,24.90
2019-05-01T10:00:20.540Z,26.20
2019-05-01T10:01:24.580Z,24.50
2019-05-01T10:02:21.517Z,23.90
2019-05-01T10:03:20.527Z,25.40
2019-05-01T10:04:20.509Z,27.70
2019-05-01T10:05:28.699Z,25.60
2019-05-01T10:06:21.481Z,25.50
2019-05-01T10:07:23.980Z,23.60
2019-05-01T10:08:21.488Z,24.30
2019-05-01T10:09:20.457Z,23.80
2019-05-01T10:10:20.475Z,22.80
2019-05-01T10:11:20.449Z,22.50
2019-05-01T10:12:20.420Z,22.40
2019-05-01T10:13:22.314Z,21.60
2019-05-01T10:14:20.469Z,24.40
2019-05-01T10:15:20.393Z,21.00
2019-05-01T10:16:20.395Z,25.40
2019-05-01T10:17:20.383Z,22.80
2019-05-01T10:18:20.380Z,23.00
2019-05-01T10:19:20.392Z,22.30
2019-05-01T10:20:20.348Z,28.70
2019-05-01T10:21:22.294Z,23.80
2019-05-01T10:22:21.357Z,21.40
2019-05-01T10:23:20.330Z,21.30
2019-05-01T10:24:20.330Z,21.70
2019-05-01T10:25:20.311Z,21.90
2019-05-01T10:26:24.067Z,29.30
2019-05-01T10:27:20.334Z,25.20
2019-05-01T10:28:20.273Z,21.50
2019-05-01T10:29:21.372Z,22.20
2019-05-01T10:30:21.271Z,20.30
2019-05-01T10:31:20.244Z,21.60
2019-05-01T10:32:21.546Z,22.10
2019-05-01T10:33:20.215Z,23.40
2019-05-01T10:34:20.232Z,22.80
2019-05-01T10:35:21.085Z,22.50
2019-05-01T10:36:20.622Z,24.90
2019-05-01T10:37:20.199Z,23.70
2019-05-01T10:38:20.163Z,22.00
2019-05-01T10:39:20.825Z,21.90
2019-05-01T10:40:22.288Z,24.60
2019-05-01T10:41:20.149Z,21.70
2019-05-01T10:42:20.136Z,23.20
2019-05-01T10:43:20.122Z,21.80
2019-05-01T10:44:20.109Z,21.20
2019-05-01T10:45:20.128Z,23.20
2019-05-01T10:46:20.091Z,24.30
2019-05-01T10:47:20.078Z,21.80
2019-05-01T10:48:20.078Z,25.10
2019-05-01T10:49:20.079Z,21.90
2019-05-01T10:50:20.468Z,21.20
2019-05-01T10:51:20.041Z,22.50
2019-05-01T10:52:20.024Z,20.90
2019-05-01T10:53:20.026Z,21.20
2019-05-01T10:54:20.024Z,19.30
2019-05-01T10:55:20.019Z,21.70
2019-05-01T10:56:19.977Z,22.20
2019-05-01T10:57:19.984Z,23.50
2019-05-01T10:58:20.293Z,20.50
2019-05-01T10:59:19.953Z,19.50
2019-05-01T11:00:19.976Z,20.20
2019-05-01T11:01:19.945Z,22.10
2019-05-01T11:02:19.933Z,20.40
2019-05-01T11:03:19.921Z,17.90
2019-05-01T11:04:19.918Z,21.10
2019-05-01T11:05:19.922Z,22.00
2019-05-01T11:06:19.882Z,20.30
2019-05-01T11:07:19.895Z,16.80
2019-05-01T11:08:19.872Z,18.70
2019-05-01T11:09:19.865Z,19.30
2019-05-01T11:10:19.847Z,16.30
2019-05-01T11:11:19.831Z,19.70
2019-05-01T11:12:19.855Z,17.10
2019-05-01T11:13:19.826Z,18.60
2019-05-01T11:14:19.817Z,17.90
2019-05-01T11:15:19.819Z,18.90
2019-05-01T11:16:19.784Z,19.20
2019-05-01T11:17:19.804Z,18.40
2019-05-01T11:18:19.767Z,17.90
2019-05-01T11:19:19.750Z,17.20
2019-05-01T11:20:19.804Z,18.90
2019-05-01T11:21:19.743Z,19.60
2019-05-01T11:22:19.739Z,19.00
2019-05-01T11:23:19.734Z,18.30
2019-05-01T11:24:19.705Z,18.70
2019-05-01T11:25:19.712Z,17.30
2019-05-01T11:26:19.698Z,16.30
2019-05-01T11:27:19.703Z,19.90
2019-05-01T11:28:19.673Z,16.50
2019-05-01T11:29:19.663Z,17.60
2019-05-01T11:30:19.654Z,16.60
2019-05-01T11:31:19.670Z,18.20
2019-05-01T11:32:19.640Z,18.60
2019-05-01T11:33:19.647Z,15.90
2019-05-01T11:34:19.619Z,16.50
2019-05-01T11:35:19.616Z,16.00
2019-05-01T11:36:19.585Z,16.90
2019-05-01T11:37:19.598Z,17.60
2019-05-01T11:38:19.574Z,15.20
2019-05-01T11:39:19.571Z,19.70
2019-05-01T11:40:19.567Z,15.10
2019-05-01T11:41:19.568Z,17.30
2019-05-01T11:42:19.528Z,15.70
2019-05-01T11:43:19.514Z,16.30
2019-05-01T11:44:19.519Z,17.70
2019-05-01T11:45:19.514Z,19.20
2019-05-01T11:46:19.529Z,16.30
2019-05-01T11:47:19.491Z,17.10
2019-05-01T11:48:19.477Z,15.60
2019-05-01T11:49:19.457Z,14.50
2019-05-01T11:50:19.456Z,20.50
2019-05-01T11:51:19.444Z,14.50
2019-05-01T11:52:19.467Z,16.70
2019-05-01T11:53:19.456Z,15.40
2019-05-01T11:54:19.425Z,15.70
2019-05-01T11:55:19.408Z,14.90
2019-05-01T11:56:19.405Z,13.60
2019-05-01T11:57:19.450Z,14.30
2019-05-01T11:58:19.381Z,16.00
2019-05-01T11:59:19.377Z,17.20
2019-05-01T12:00:19.364Z,14.40
2019-05-01T12:01:19.339Z,17.40
2019-05-01T12:02:19.344Z,15.30
2019-05-01T12:03:19.353Z,21.70
2019-05-01T12:04:19.327Z,15.30
2019-05-01T12:05:19.319Z,14.40
2019-05-01T12:06:23.164Z,16.30
2019-05-01T12:07:19.321Z,15.20
2019-05-01T12:08:19.301Z,14.60
2019-05-01T12:09:19.270Z,17.30
2019-05-01T12:10:19.257Z,13.40
2019-05-01T12:11:19.245Z,15.40
2019-05-01T12:12:19.268Z,17.40
2019-05-01T12:13:19.231Z,15.40
2019-05-01T12:14:19.243Z,15.30
2019-05-01T12:15:19.206Z,15.20
2019-05-01T12:16:19.211Z,13.50
2019-05-01T12:17:19.204Z,15.10
2019-05-01T12:18:19.189Z,13.70
2019-05-01T12:19:19.197Z,13.80
2019-05-01T12:20:19.184Z,14.80
2019-05-01T12:21:19.154Z,16.40
2019-05-01T12:22:19.147Z,16.20
2019-05-01T12:23:19.142Z,16.60
2019-05-01T12:24:19.127Z,16.40
2019-05-01T12:25:19.127Z,13.90
2019-05-01T12:26:19.114Z,15.00
2019-05-01T12:27:19.108Z,16.00
2019-05-01T12:28:19.106Z,16.40
2019-05-01T12:29:19.073Z,16.20
2019-05-01T12:30:19.073Z,14.70
2019-05-01T12:31:19.064Z,14.10
2019-05-01T12:32:19.031Z,16.50
2019-05-01T12:33:19.032Z,16.40
2019-05-01T12:34:19.046Z,16.70
2019-05-01T12:35:19.010Z,15.50
2019-05-01T12:36:19.007Z,15.40
2019-05-01T12:37:18.999Z,15.20
2019-05-01T12:38:19.002Z,15.70
2019-05-01T12:39:18.975Z,14.60
2019-05-01T12:40:18.948Z,17.60
2019-05-01T12:41:18.947Z,15.20
2019-05-01T12:42:18.926Z,15.10
2019-05-01T12:43:18.947Z,15.10
2019-05-01T12:44:18.921Z,14.70
2019-05-01T12:45:18.956Z,15.70
2019-05-01T12:46:18.882Z,16.40
2019-05-01T12:47:18.891Z,15.60
2019-05-01T12:48:18.900Z,13.90
2019-05-01T12:49:18.864Z,14.70
2019-05-01T12:50:18.861Z,15.20
2019-05-01T12:51:18.846Z,15.60
2019-05-01T12:52:18.822Z,14.10